Baileyville, IL (61007)

6:45 PM CDT on May 04, 2015 (GMT -0500)
KILFREEP4 | | Change Station
CLOSE
Current Station
Personal Weather Station
Location: Freeport, IL
Elevation: 792 ft
Nearby Weather Stations

Elev 792 ft 42.26 °N, 89.62 °W | Updated 30 seconds ago

Overcast
Overcast
72.3 °F
Feels Like 75 °F
N
1.0
Wind Variable Wind from ENE
Gusts 4.0 mph

Today
High -- | Low -- °F
--% Chance of Precip.
Yesterday
High -- | Low -- °F
Precip. -- in
5:50 AM 8:00 PM
Full, 99% visible
Pressure 30.12 in
Visibility 10.0 miles
Clouds Overcast 5500 ft
Heat Index 75 °F
Dew Point 62 °F
Humidity 69%
Rainfall 0.15 in
Snow Depth Not available.
UV 0 out of 12
Pollen 1.30 out of 12
Air Quality Not available.
Flu Activity Local Activity
METAR KFEP 042335Z AUTO 07005KT 10SM OVC055 21/15 A3012 RMK AO2 T02110147

More Conditions Fewer Conditions

Pressure 30.12 in
Visibility 10.0 miles
Clouds Overcast 5500 ft
Heat Index 75 °F
Dew Point 62 °F
Humidity 69%
Rainfall 0.15 in
Snow Depth Not available.
UV 0 out of 12
Pollen 1.30 out of 12
Air Quality Not available.
Flu Activity Local Activity
METAR KFEP 042335Z AUTO 07005KT 10SM OVC055 21/15 A3012 RMK AO2 T02110147

More Conditions Fewer Conditions

Nepal has a long way to go to dig out and rebuild from a devastating earthquake. We have teamed up with several charities and organizations to make contributing to the relief effort as easy as possible.
How you can help: Portlight Strategies | Red Cross

10-Day Weather Forecast

Almanac

Astronomy

May. 04, 2015 Rise Set
Actual Time
Civil Twilight
Nautical Twilight
Astronomical Twilight
Moon
Length of Visible Light
Length of Day
Tomorrow will be .
, % of the Moon is Illuminated

Today's Extremes

State Highs State Lows

Community

WunderPhotos

Upload Photos

1,818,737 photos uploaded!

WunderBlogs® & News

Nearby

Air Quality

  Air Quality AQ Index Pollutant
Not available.

Snow Depth

Station Depth Elevation

Earthquake Activity

City Distance Mag. Time & Date
Minimum magnitude displayed is 2.5.

Coastal Water Temperatures

Place Temperature

Stations

Nearby Weather Stations

Station Location Temp. Windchill Dew Point Humidity Wind Precip. Elev Updated Type